Time;durP1;ratioP1;P1;durP2;ratioP2;P2;SDS_P1;SDS_P2;PMS_P1;PMS_P2;Temp;Humidity;BMP_temperature;BMP_pressure;BME280_temperature;BME280_humidity;BME280_pressure;Samples;Min_cycle;Max_cycle;Signal;HPM_P1;HPM_P2
2020/12/14 00:00:10;;;;;;;11.05;4.20;;;11.40;83.50;;;;;;5030031;28;20029;-81
2020/12/14 00:02:38;;;;;;;13.82;4.60;;;11.40;83.50;;;;;;5028434;28;20146;-81
2020/12/14 00:05:06;;;;;;;15.32;4.53;;;11.40;83.50;;;;;;5024753;28;20075;-81
2020/12/14 00:07:32;;;;;;;17.13;5.30;;;11.40;83.50;;;;;;5020703;28;20440;-80
2020/12/14 00:09:59;;;;;;;16.60;4.95;;;11.40;83.50;;;;;;5020621;28;20026;-81
2020/12/14 00:12:25;;;;;;;14.32;5.03;;;11.40;83.50;;;;;;5009861;28;20045;-81
2020/12/14 00:14:51;;;;;;;14.52;4.75;;;11.40;83.50;;;;;;5008618;28;20029;-80
2020/12/14 00:17:17;;;;;;;11.38;4.38;;;11.40;83.50;;;;;;5008565;28;20037;-81
2020/12/14 00:19:43;;;;;;;16.23;5.10;;;11.40;83.50;;;;;;5022957;28;20112;-80
2020/12/14 00:22:09;;;;;;;12.55;4.55;;;11.40;83.50;;;;;;5029333;28;20030;-78
2020/12/14 00:24:35;;;;;;;15.77;4.68;;;11.40;83.50;;;;;;5028073;28;20101;-79
2020/12/14 00:27:01;;;;;;;15.73;5.07;;;11.40;83.50;;;;;;5030008;28;20040;-77
2020/12/14 00:29:27;;;;;;;17.85;5.38;;;11.50;83.70;;;;;;5027764;28;20025;-79
2020/12/14 00:31:54;;;;;;;12.00;4.28;;;11.40;83.50;;;;;;5028126;28;20064;-78
2020/12/14 00:34:21;;;;;;;16.67;4.75;;;11.40;83.50;;;;;;5029033;28;20365;-78
2020/12/14 00:36:47;;;;;;;18.88;5.03;;;11.40;83.50;;;;;;5028760;28;20064;-79
2020/12/14 00:39:13;;;;;;;14.55;4.88;;;11.50;83.60;;;;;;5029060;28;20028;-79
2020/12/14 00:41:39;;;;;;;16.35;4.60;;;11.50;83.60;;;;;;5029029;28;20038;-78
2020/12/14 00:44:06;;;;;;;13.50;4.75;;;11.50;83.60;;;;;;5029316;28;20044;-77
2020/12/14 00:46:32;;;;;;;14.10;4.68;;;11.50;83.60;;;;;;5029016;28;20344;-79
2020/12/14 00:48:58;;;;;;;13.40;4.50;;;11.50;83.60;;;;;;5027856;28;20607;-79
2020/12/14 00:51:28;;;;;;;13.43;4.38;;;11.50;83.60;;;;;;5029235;28;20072;-78
2020/12/14 00:53:56;;;;;;;14.43;4.30;;;11.50;83.50;;;;;;5024491;28;20064;-80
2020/12/14 00:56:22;;;;;;;14.38;4.53;;;11.50;83.50;;;;;;5019892;28;20132;-80
2020/12/14 00:58:48;;;;;;;12.23;4.78;;;11.50;83.50;;;;;;5027188;28;20075;-80
2020/12/14 01:01:16;;;;;;;17.10;4.40;;;11.50;83.50;;;;;;5027794;28;20073;-81
2020/12/14 01:03:43;;;;;;;8.20;4.20;;;11.50;83.50;;;;;;5026185;28;20060;-81
2020/12/14 01:06:09;;;;;;;11.55;4.80;;;11.50;83.50;;;;;;5027393;28;20037;-81
2020/12/14 01:08:36;;;;;;;10.02;4.15;;;11.50;83.50;;;;;;5027538;28;21025;-81
2020/12/14 01:11:02;;;;;;;8.90;3.80;;;11.40;83.30;;;;;;5027412;28;20460;-81
2020/12/14 01:13:28;;;;;;;14.10;5.13;;;11.40;83.30;;;;;;5029044;28;20029;-81
2020/12/14 01:15:54;;;;;;;10.18;3.28;;;11.40;83.30;;;;;;5028921;28;20025;-82
2020/12/14 01:18:20;;;;;;;10.20;4.10;;;11.40;83.30;;;;;;5027468;28;20044;-81
2020/12/14 01:20:46;;;;;;;10.05;4.05;;;11.40;83.30;;;;;;5027757;28;20029;-81
2020/12/14 01:23:12;;;;;;;14.57;4.05;;;11.40;83.30;;;;;;5010980;28;20116;-81
2020/12/14 01:25:38;;;;;;;15.60;4.70;;;11.40;83.30;;;;;;5028298;28;20041;-81
2020/12/14 01:28:07;;;;;;;13.30;4.53;;;11.40;83.30;;;;;;5028341;28;20457;-80
2020/12/14 01:30:36;;;;;;;10.45;4.32;;;11.40;83.40;;;;;;5026937;28;20056;-81
2020/12/14 01:33:03;;;;;;;10.35;3.80;;;11.40;83.40;;;;;;5028110;28;20037;-81
2020/12/14 01:35:29;;;;;;;13.15;3.90;;;11.40;83.40;;;;;;5028376;28;20473;-81
2020/12/14 01:37:55;;;;;;;9.65;3.30;;;11.40;83.40;;;;;;5026997;28;20112;-81
2020/12/14 01:40:22;;;;;;;7.03;3.75;;;11.40;83.40;;;;;;5027846;28;20119;-81
2020/12/14 01:42:48;;;;;;;10.70;4.35;;;11.40;83.40;;;;;;5028492;28;20030;-81
2020/12/14 01:45:16;;;;;;;12.23;4.18;;;11.40;83.40;;;;;;5026715;28;20025;-81
2020/12/14 01:47:43;;;;;;;12.85;3.88;;;11.40;83.40;;;;;;5026210;28;20458;-81
2020/12/14 01:50:12;;;;;;;11.07;3.88;;;11.30;83.20;;;;;;5025943;28;20025;-81
2020/12/14 01:52:43;;;;;;;11.30;3.90;;;11.40;83.40;;;;;;5026582;28;20543;-81
2020/12/14 01:55:12;;;;;;;8.60;4.00;;;11.30;83.20;;;;;;5009598;28;20461;-82
2020/12/14 01:57:38;;;;;;;10.18;3.78;;;11.40;83.40;;;;;;5026834;28;20429;-82
2020/12/14 02:00:10;;;;;;;9.40;3.83;;;11.30;83.30;;;;;;5009495;28;20021;-81
2020/12/14 02:02:36;;;;;;;10.30;3.38;;;11.30;83.30;;;;;;5009880;28;20323;-81
2020/12/14 02:05:05;;;;;;;11.50;3.63;;;11.30;83.30;;;;;;5027514;28;20025;-81
2020/12/14 02:07:31;;;;;;;13.57;4.30;;;11.30;83.30;;;;;;5026126;28;20033;-82
2020/12/14 02:09:57;;;;;;;9.68;3.85;;;11.30;83.30;;;;;;5027575;28;20026;-81
2020/12/14 02:12:24;;;;;;;7.95;3.58;;;11.30;83.30;;;;;;5026691;28;20446;-81
2020/12/14 02:14:52;;;;;;;8.75;3.40;;;11.30;83.30;;;;;;5009346;28;20033;-81
2020/12/14 02:17:19;;;;;;;8.88;3.60;;;11.30;83.30;;;;;;5009937;28;20033;-81
2020/12/14 02:19:46;;;;;;;9.25;3.20;;;11.20;83.10;;;;;;5025698;28;20079;-81
2020/12/14 02:22:15;;;;;;;11.30;3.60;;;11.20;83.10;;;;;;5025872;28;20029;-81
2020/12/14 02:24:45;;;;;;;4.80;2.78;;;11.20;83.20;;;;;;5025895;28;20025;-81
2020/12/14 02:27:14;;;;;;;16.77;4.10;;;11.20;83.20;;;;;;5025445;28;20071;-81
2020/12/14 02:29:43;;;;;;;7.38;3.10;;;11.20;83.20;;;;;;5027140;28;20488;-82
2020/12/14 02:32:13;;;;;;;8.32;2.67;;;11.20;83.20;;;;;;5027033;28;20493;-81
2020/12/14 02:34:42;;;;;;;10.30;2.92;;;11.20;83.20;;;;;;5025823;28;20110;-81
2020/12/14 02:37:10;;;;;;;6.03;2.85;;;11.20;83.20;;;;;;5025581;28;20044;-80
2020/12/14 02:39:37;;;;;;;9.00;3.80;;;11.20;83.20;;;;;;5008935;28;20125;-80
2020/12/14 02:42:08;;;;;;;4.30;2.42;;;11.20;83.20;;;;;;5025932;28;20120;-80
2020/12/14 02:44:34;;;;;;;7.03;2.72;;;11.20;83.30;;;;;;5009351;28;20461;-80
2020/12/14 02:47:00;;;;;;;8.82;3.10;;;11.20;83.20;;;;;;5022202;28;20129;-80
2020/12/14 02:49:26;;;;;;;6.85;2.45;;;11.20;83.30;;;;;;5016459;28;20133;-79
2020/12/14 02:51:52;;;;;;;9.32;3.60;;;11.20;83.30;;;;;;5010307;28;20457;-80
2020/12/14 02:54:18;;;;;;;6.75;3.00;;;11.20;83.30;;;;;;5013774;28;20034;-81
2020/12/14 02:56:44;;;;;;;5.22;2.78;;;11.20;83.30;;;;;;5028964;28;20572;-80
2020/12/14 02:59:14;;;;;;;7.18;2.60;;;11.20;83.30;;;;;;5010909;28;20060;-80
2020/12/14 03:01:40;;;;;;;6.65;2.70;;;11.20;83.30;;;;;;5025798;28;20125;-80
2020/12/14 03:04:06;;;;;;;3.67;2.22;;;11.20;83.30;;;;;;5010557;28;20034;-81
2020/12/14 03:06:33;;;;;;;6.45;2.03;;;11.20;83.30;;;;;;5008881;28;20025;-81
2020/12/14 03:08:59;;;;;;;6.95;2.75;;;11.10;83.20;;;;;;5025494;28;20147;-81
2020/12/14 03:11:25;;;;;;;6.05;2.30;;;11.10;83.20;;;;;;5025253;28;20504;-81
2020/12/14 03:13:51;;;;;;;7.38;2.65;;;11.10;83.20;;;;;;5025305;28;20061;-79
2020/12/14 03:16:18;;;;;;;8.75;2.80;;;11.20;83.40;;;;;;5010201;28;20036;-80
2020/12/14 03:18:44;;;;;;;7.97;2.72;;;11.10;83.20;;;;;;5010225;28;20030;-79
2020/12/14 03:21:10;;;;;;;8.73;2.60;;;11.10;83.70;;;;;;5024940;28;20049;-80
2020/12/14 03:23:36;;;;;;;8.95;2.70;;;11.10;83.20;;;;;;5010547;28;20453;-81
2020/12/14 03:26:02;;;;;;;8.43;2.95;;;11.20;83.40;;;;;;5017454;28;20337;-79
2020/12/14 03:28:29;;;;;;;9.02;2.85;;;11.10;83.20;;;;;;5008676;28;20036;-80
2020/12/14 03:30:55;;;;;;;6.88;2.75;;;11.10;83.20;;;;;;5010006;28;20034;-80
2020/12/14 03:33:21;;;;;;;8.43;3.03;;;11.10;83.20;;;;;;5010296;28;20109;-81
2020/12/14 03:35:47;;;;;;;8.70;2.75;;;11.10;83.20;;;;;;4992319;28;20132;-81
2020/12/14 03:38:17;;;;;;;5.30;2.22;;;11.10;83.30;;;;;;5010337;28;20080;-81
2020/12/14 03:40:43;;;;;;;8.30;2.72;;;11.10;83.30;;;;;;5010003;28;20034;-80
2020/12/14 03:43:09;;;;;;;5.78;2.50;;;11.10;83.30;;;;;;5010250;28;20096;-80
2020/12/14 03:45:36;;;;;;;8.30;2.58;;;11.10;83.30;;;;;;5008652;28;20033;-80
2020/12/14 03:48:03;;;;;;;6.05;2.67;;;11.10;83.30;;;;;;5013799;28;20053;-81
2020/12/14 03:50:29;;;;;;;8.90;2.72;;;11.00;83.10;;;;;;5010123;28;20030;-80
2020/12/14 03:52:54;;;;;;;9.60;3.15;;;11.00;83.10;;;;;;5008666;28;20379;-81
2020/12/14 03:55:20;;;;;;;6.78;3.33;;;11.00;83.10;;;;;;5009904;28;20441;-80
2020/12/14 03:57:46;;;;;;;10.02;3.38;;;11.00;83.10;;;;;;4992182;28;20030;-81
2020/12/14 04:00:12;;;;;;;5.82;2.63;;;11.00;83.10;;;;;;5009575;28;20030;-81
2020/12/14 04:02:39;;;;;;;13.63;2.78;;;11.00;83.10;;;;;;5008511;28;20080;-81
2020/12/14 04:05:07;;;;;;;8.55;3.08;;;11.00;83.20;;;;;;5009512;28;20034;-80
2020/12/14 04:07:32;;;;;;;8.68;3.03;;;11.00;83.10;;;;;;5008542;28;20105;-81
2020/12/14 04:09:58;;;;;;;9.45;3.25;;;11.00;83.20;;;;;;4992161;28;20117;-81
2020/12/14 04:12:24;;;;;;;6.38;3.00;;;10.90;83.00;;;;;;5010277;28;20088;-80
2020/12/14 04:14:50;;;;;;;8.82;2.53;;;10.90;83.00;;;;;;5009970;28;20030;-81
2020/12/14 04:17:16;;;;;;;11.40;3.00;;;10.90;83.00;;;;;;5008108;28;20189;-80
2020/12/14 04:19:42;;;;;;;8.68;2.92;;;10.90;83.00;;;;;;5009574;28;20478;-80
2020/12/14 04:22:09;;;;;;;9.68;3.53;;;10.90;83.00;;;;;;4991808;28;20064;-80
2020/12/14 04:24:36;;;;;;;9.38;3.42;;;10.90;83.00;;;;;;5008335;28;20049;-81
2020/12/14 04:27:05;;;;;;;7.82;2.42;;;10.80;82.90;;;;;;4992099;28;20069;-80
2020/12/14 04:29:31;;;;;;;8.27;2.95;;;10.80;83.00;;;;;;5007941;28;20474;-79
2020/12/14 04:31:57;;;;;;;7.40;2.67;;;10.80;83.00;;;;;;5010226;28;20068;-80
2020/12/14 04:34:23;;;;;;;8.50;3.53;;;10.80;83.00;;;;;;5009410;28;20132;-80
2020/12/14 04:36:49;;;;;;;6.22;3.20;;;10.80;83.00;;;;;;5008102;28;20133;-80
2020/12/14 04:39:19;;;;;;;8.02;2.97;;;10.80;83.00;;;;;;5013197;28;20029;-80
2020/12/14 04:41:45;;;;;;;11.85;2.53;;;10.70;82.80;;;;;;5011724;28;20030;-80
2020/12/14 04:44:12;;;;;;;8.13;2.75;;;10.80;83.10;;;;;;5013197;28;20081;-81
2020/12/14 04:46:38;;;;;;;6.40;2.70;;;10.70;82.90;;;;;;5013033;28;20026;-81
2020/12/14 04:49:06;;;;;;;6.45;2.75;;;10.70;82.90;;;;;;5012850;28;20030;-81
2020/12/14 04:51:35;;;;;;;9.07;3.40;;;10.70;83.00;;;;;;5012317;28;20033;-81
2020/12/14 04:54:02;;;;;;;9.15;2.92;;;10.70;83.00;;;;;;5012910;28;20034;-81
2020/12/14 04:56:29;;;;;;;6.75;3.03;;;10.60;82.80;;;;;;5013002;28;20160;-81
2020/12/14 04:58:57;;;;;;;4.38;2.53;;;10.60;83.30;;;;;;5011355;28;20149;-80
2020/12/14 05:01:24;;;;;;;6.47;2.70;;;10.70;83.00;;;;;;5012374;28;20113;-80
2020/12/14 05:03:50;;;;;;;10.63;2.83;;;10.60;82.80;;;;;;5028102;28;20032;-82
2020/12/14 05:06:16;;;;;;;5.50;3.00;;;10.60;82.90;;;;;;5011402;28;20057;-81
2020/12/14 05:08:42;;;;;;;7.53;2.80;;;10.60;82.90;;;;;;4978586;28;20195;-81
2020/12/14 05:11:09;;;;;;;6.93;2.67;;;10.60;82.90;;;;;;5011033;28;20034;-81
2020/12/14 05:13:35;;;;;;;5.18;2.55;;;10.60;82.90;;;;;;5011085;28;20026;-81
2020/12/14 05:16:01;;;;;;;11.27;2.97;;;10.60;83.00;;;;;;5011092;28;20026;-80
2020/12/14 05:18:27;;;;;;;5.90;3.13;;;10.60;82.90;;;;;;4994793;28;20034;-81
2020/12/14 05:21:00;;;;;;;8.90;2.88;;;10.60;82.90;;;;;;4994463;28;20030;-81
2020/12/14 05:23:28;;;;;;;5.65;2.05;;;10.60;83.00;;;;;;5010832;28;20038;-82
2020/12/14 05:26:07;;;;;;;7.97;2.40;;;10.50;82.70;;;;;;5010376;28;20052;-81
2020/12/14 05:28:34;;;;;;;7.70;2.70;;;10.50;82.70;;;;;;5011951;28;20030;-81
2020/12/14 05:31:00;;;;;;;8.00;3.15;;;10.50;82.70;;;;;;5012389;28;20068;-80
2020/12/14 05:33:28;;;;;;;5.10;2.38;;;10.50;82.70;;;;;;5011904;28;20046;-81
2020/12/14 05:35:54;;;;;;;4.65;2.20;;;10.40;82.60;;;;;;5010627;28;20034;-81
2020/12/14 05:38:25;;;;;;;4.32;2.45;;;10.40;82.60;;;;;;5010711;28;20041;-81
2020/12/14 05:40:54;;;;;;;7.65;2.50;;;10.40;82.60;;;;;;5011381;28;20029;-81
2020/12/14 05:43:25;;;;;;;6.65;2.03;;;10.40;82.60;;;;;;5016174;28;20460;-81
2020/12/14 05:45:52;;;;;;;7.85;2.72;;;10.40;82.60;;;;;;5027234;28;20049;-81
2020/12/14 05:48:28;;;;;;;9.25;2.55;;;10.30;82.50;;;;;;5013400;28;20053;-81
2020/12/14 05:51:04;;;;;;;8.10;3.28;;;10.30;83.00;;;;;;5006393;28;20493;-81
2020/12/14 05:53:34;;;;;;;5.68;2.35;;;10.30;82.50;;;;;;5023940;28;20029;-79
2020/12/14 05:56:01;;;;;;;6.30;2.70;;;10.30;82.50;;;;;;5016925;28;20040;-78
2020/12/14 05:58:30;;;;;;;4.60;2.15;;;10.30;82.60;;;;;;5023070;28;20448;-81
2020/12/14 06:00:56;;;;;;;6.00;2.25;;;10.30;82.60;;;;;;5009553;28;20379;-80
2020/12/14 06:03:24;;;;;;;6.70;2.30;;;10.20;82.40;;;;;;5024048;28;20035;-79
2020/12/14 06:05:58;;;;;;;4.88;1.95;;;10.20;82.40;;;;;;5023592;28;20040;-80
2020/12/14 06:08:58;;;;;;;8.02;2.67;;;10.20;82.40;;;;;;5013200;28;20030;-81
2020/12/14 06:11:26;;;;;;;10.15;2.63;;;10.20;82.40;;;;;;5020063;28;20109;-82
2020/12/14 06:13:58;;;;;;;5.95;3.05;;;10.10;82.30;;;;;;5006073;28;20038;-81
2020/12/14 06:16:30;;;;;;;4.85;2.08;;;10.10;82.30;;;;;;5014372;28;20034;-83
2020/12/14 06:18:57;;;;;;;6.25;2.28;;;10.10;82.30;;;;;;5024110;28;20472;-81
2020/12/14 06:21:39;;;;;;;10.68;2.28;;;10.10;82.30;;;;;;5023822;28;20036;-80
2020/12/14 06:24:06;;;;;;;5.95;2.00;;;10.00;82.70;;;;;;5015134;28;20458;-82
2020/12/14 06:26:35;;;;;;;9.73;2.72;;;10.00;82.20;;;;;;5022267;28;20515;-79
2020/12/14 06:29:01;;;;;;;6.55;2.85;;;10.00;82.20;;;;;;5021425;28;20476;-80
2020/12/14 06:31:40;;;;;;;6.85;2.28;;;10.00;82.30;;;;;;5014140;28;20044;-80
2020/12/14 06:34:32;;;;;;;6.88;2.75;;;9.90;82.10;;;;;;5024900;28;20077;-81
2020/12/14 06:36:59;;;;;;;8.73;3.22;;;9.90;82.20;;;;;;4989579;28;20132;-81
2020/12/14 06:39:30;;;;;;;8.90;3.08;;;9.90;82.30;;;;;;5016650;28;20033;-81
2020/12/14 06:42:11;;;;;;;5.47;2.58;;;9.90;82.30;;;;;;5022575;28;20520;-82
2020/12/14 06:44:43;;;;;;;7.28;2.90;;;9.90;82.30;;;;;;5007300;28;20414;-79
2020/12/14 06:47:13;;;;;;;4.93;2.53;;;9.90;82.30;;;;;;5024226;28;20414;-81
2020/12/14 06:49:40;;;;;;;11.52;2.88;;;9.90;82.30;;;;;;5013987;28;20036;-79
2020/12/14 06:52:06;;;;;;;5.70;2.78;;;9.90;82.30;;;;;;5020308;28;20115;-79
2020/12/14 06:54:45;;;;;;;10.65;2.55;;;9.90;82.30;;;;;;5006581;28;20210;-80
2020/12/14 06:57:13;;;;;;;5.05;2.63;;;9.90;82.40;;;;;;5005237;28;20405;-79
2020/12/14 06:59:39;;;;;;;7.10;2.90;;;9.90;82.40;;;;;;5024382;28;20029;-78
2020/12/14 07:02:07;;;;;;;11.02;3.20;;;9.80;82.20;;;;;;5026008;28;20047;-80
2020/12/14 07:04:33;;;;;;;10.35;3.42;;;9.80;82.20;;;;;;5026126;28;20032;-81
2020/12/14 07:07:05;;;;;;;7.30;2.17;;;9.80;82.20;;;;;;5024997;28;20057;-79
2020/12/14 07:09:34;;;;;;;8.55;2.65;;;9.80;82.30;;;;;;5026414;28;20077;-82
2020/12/14 07:12:09;;;;;;;6.18;2.38;;;9.70;82.60;;;;;;5017043;28;20050;-81
2020/12/14 07:14:52;;;;;;;10.50;3.17;;;9.80;82.40;;;;;;5003444;28;20030;-81
2020/12/14 07:17:25;;;;;;;10.93;3.55;;;9.70;82.20;;;;;;4998911;28;20056;-80
2020/12/14 07:19:56;;;;;;;12.30;2.80;;;9.80;82.40;;;;;;5011228;28;20495;-80
2020/12/14 07:22:24;;;;;;;14.70;2.92;;;9.70;82.30;;;;;;5022707;28;20290;-80
2020/12/14 07:25:00;;;;;;;16.73;3.15;;;9.70;82.30;;;;;;5024992;28;20473;-79
2020/12/14 07:27:31;;;;;;;8.27;3.08;;;9.70;82.30;;;;;;5025407;28;20358;-76
2020/12/14 07:30:07;;;;;;;14.30;3.60;;;9.70;82.40;;;;;;5004632;28;20473;-75
2020/12/14 07:32:33;;;;;;;12.45;3.80;;;9.70;82.40;;;;;;4989038;28;20034;-76
2020/12/14 07:34:59;;;;;;;16.42;3.25;;;9.70;82.40;;;;;;5017732;28;20124;-77
2020/12/14 07:37:25;;;;;;;14.68;3.95;;;9.70;82.50;;;;;;5024057;28;20033;-76
2020/12/14 07:39:52;;;;;;;11.35;2.95;;;9.70;82.50;;;;;;5004198;28;20125;-75
2020/12/14 07:42:32;;;;;;;14.38;4.43;;;9.60;82.30;;;;;;5005895;28;20033;-76
2020/12/14 07:45:17;;;;;;;10.02;3.10;;;9.60;82.40;;;;;;5004573;28;20037;-76
2020/12/14 07:47:45;;;;;;;12.23;4.47;;;9.60;82.40;;;;;;5006570;28;20444;-75
2020/12/14 07:50:16;;;;;;;12.57;3.85;;;9.60;82.40;;;;;;5023798;28;20021;-76
2020/12/14 07:52:43;;;;;;;14.50;4.22;;;9.60;82.40;;;;;;5025784;28;20060;-75
2020/12/14 07:55:11;;;;;;;10.88;3.30;;;9.60;82.50;;;;;;5025716;28;20385;-75
2020/12/14 07:57:39;;;;;;;14.55;3.50;;;9.60;82.50;;;;;;5024606;28;20040;-75
2020/12/14 08:00:11;;;;;;;14.10;4.25;;;9.60;82.60;;;;;;5026304;28;20598;-75
2020/12/14 08:02:44;;;;;;;12.05;2.78;;;9.60;82.60;;;;;;5025658;28;20030;-75
2020/12/14 08:05:13;;;;;;;10.25;3.40;;;9.60;82.60;;;;;;5024692;28;20025;-76
2020/12/14 08:07:50;;;;;;;10.45;3.45;;;9.60;82.60;;;;;;5024416;28;20075;-76
2020/12/14 08:10:20;;;;;;;12.32;3.72;;;9.60;82.60;;;;;;5025924;28;20029;-75
2020/12/14 08:12:46;;;;;;;15.73;5.32;;;9.60;82.60;;;;;;5027099;28;20053;-74
2020/12/14 08:15:19;;;;;;;17.38;4.32;;;9.60;82.60;;;;;;5029872;28;20476;-75
2020/12/14 08:17:46;;;;;;;11.60;4.40;;;9.60;82.70;;;;;;5029306;28;20052;-74
2020/12/14 08:20:29;;;;;;;14.48;4.93;;;9.60;82.70;;;;;;5028106;28;20025;-75
2020/12/14 08:22:59;;;;;;;11.77;3.43;;;9.60;82.70;;;;;;5028156;28;20635;-76
2020/12/14 08:25:27;;;;;;;15.93;4.10;;;9.60;82.70;;;;;;5028062;28;20275;-75
2020/12/14 08:27:59;;;;;;;15.45;4.20;;;9.70;82.90;;;;;;5029135;28;20124;-75
2020/12/14 08:30:27;;;;;;;15.20;4.47;;;9.70;83.00;;;;;;5027967;28;20495;-74
2020/12/14 08:33:19;;;;;;;11.63;3.97;;;9.70;82.90;;;;;;5029148;28;20034;-74
2020/12/14 08:35:50;;;;;;;16.23;4.50;;;9.70;83.00;;;;;;5029788;28;20034;-75
2020/12/14 08:38:24;;;;;;;17.73;4.47;;;9.70;83.00;;;;;;5028969;28;20317;-75
2020/12/14 08:41:02;;;;;;;10.70;4.00;;;9.70;83.00;;;;;;5022367;28;20037;-75
2020/12/14 08:43:30;;;;;;;15.45;5.47;;;9.70;83.00;;;;;;5024786;28;20488;-76
2020/12/14 08:46:09;;;;;;;17.80;4.22;;;9.70;83.00;;;;;;5027871;28;20022;-76
2020/12/14 08:48:52;;;;;;;15.38;4.35;;;9.80;83.20;;;;;;5025284;28;20069;-77
2020/12/14 08:51:26;;;;;;;14.52;4.82;;;9.80;83.20;;;;;;5026926;28;20033;-80
2020/12/14 08:53:55;;;;;;;11.20;3.60;;;9.80;83.20;;;;;;5026620;28;20056;-80
2020/12/14 08:56:24;;;;;;;20.50;5.07;;;9.80;83.20;;;;;;5010559;28;20416;-81
2020/12/14 08:58:54;;;;;;;20.25;4.72;;;9.80;83.20;;;;;;5026923;28;20030;-82
2020/12/14 09:01:25;;;;;;;23.73;5.63;;;9.90;83.50;;;;;;5027475;28;20358;-80
2020/12/14 09:04:02;;;;;;;22.65;5.28;;;9.90;83.50;;;;;;5027114;28;20551;-77
2020/12/14 09:06:34;;;;;;;21.27;4.60;;;10.00;83.60;;;;;;5027029;28;20136;-81
2020/12/14 09:09:08;;;;;;;19.52;4.68;;;10.00;83.70;;;;;;5026971;28;20063;-79
2020/12/14 09:11:46;;;;;;;16.60;4.40;;;10.10;84.10;;;;;;5026958;28;20100;-80
2020/12/14 09:14:21;;;;;;;16.50;5.50;;;10.20;84.30;;;;;;5010710;28;20090;-79
2020/12/14 09:16:49;;;;;;;19.50;4.63;;;10.30;84.40;;;;;;5027376;28;20030;-80
2020/12/14 09:19:29;;;;;;;21.30;5.50;;;10.30;84.30;;;;;;5028699;28;20509;-79
2020/12/14 09:21:56;;;;;;;14.98;4.82;;;10.40;84.40;;;;;;5018874;28;20069;-78
2020/12/14 09:24:29;;;;;;;17.38;5.18;;;10.50;84.50;;;;;;5008769;28;20465;-79
2020/12/14 09:27:13;;;;;;;14.30;4.70;;;10.50;84.40;;;;;;5010171;28;20033;-79
2020/12/14 09:29:41;;;;;;;;;;;10.60;84.60;;;;;;5027292;28;20120;-79
2020/12/14 09:32:09;;;;;;;12.98;4.78;;;10.60;84.50;;;;;;5028237;28;19967;-77
2020/12/14 09:34:36;;;;;;;12.43;5.07;;;10.60;84.20;;;;;;5026696;28;20421;-79
2020/12/14 09:37:02;;;;;;;13.98;4.82;;;10.60;84.20;;;;;;5026450;28;20074;-78
2020/12/14 09:39:30;;;;;;;15.32;4.47;;;10.60;84.30;;;;;;5026738;28;20026;-80
2020/12/14 09:41:56;;;;;;;22.33;5.07;;;10.60;84.30;;;;;;5026957;28;20033;-81
2020/12/14 09:44:24;;;;;;;10.20;4.05;;;10.60;84.30;;;;;;5026849;28;20045;-80
2020/12/14 09:46:50;;;;;;;14.07;3.95;;;10.60;84.40;;;;;;5026351;28;20036;-79
2020/12/14 09:49:16;;;;;;;12.65;4.13;;;10.60;84.40;;;;;;5025500;28;20045;-80
2020/12/14 09:51:42;;;;;;;16.17;4.32;;;10.60;84.40;;;;;;5008666;28;20081;-78
2020/12/14 09:54:09;;;;;;;17.10;4.93;;;10.60;84.40;;;;;;5010063;28;20026;-79
2020/12/14 09:56:35;;;;;;;12.60;4.18;;;10.60;84.40;;;;;;5027754;28;20489;-80
2020/12/14 09:59:03;;;;;;;12.75;4.38;;;10.60;84.40;;;;;;5010157;28;20029;-79
2020/12/14 10:01:29;;;;;;;12.82;3.72;;;10.60;84.50;;;;;;5010275;28;20345;-80
2020/12/14 10:03:58;;;;;;;7.45;2.97;;;10.50;84.30;;;;;;5026679;28;20033;-80
2020/12/14 10:06:25;;;;;;;13.73;4.28;;;10.60;84.50;;;;;;5027030;28;20108;-86
2020/12/14 10:08:51;;;;;;;15.18;4.53;;;10.60;84.50;;;;;;5022414;28;20029;-80
2020/12/14 10:11:17;;;;;;;10.95;3.28;;;10.60;84.50;;;;;;5008387;28;20048;-82
2020/12/14 10:13:43;;;;;;;17.80;4.68;;;10.60;84.40;;;;;;5027169;28;20033;-84
2020/12/14 10:16:12;;;;;;;12.18;3.78;;;10.60;84.40;;;;;;5028897;28;20029;-82
2020/12/14 10:18:38;;;;;;;12.85;3.38;;;10.60;84.40;;;;;;5007598;28;20408;-83
2020/12/14 10:21:06;;;;;;;10.32;3.63;;;10.60;84.40;;;;;;5027036;28;20520;-81
2020/12/14 10:23:33;;;;;;;15.15;3.90;;;10.60;84.30;;;;;;5027061;28;20036;-80
2020/12/14 10:25:59;;;;;;;12.45;3.33;;;10.60;84.30;;;;;;5027683;28;20093;-80
2020/12/14 10:28:25;;;;;;;10.68;3.05;;;10.60;84.30;;;;;;5028783;28;20111;-83
2020/12/14 10:30:51;;;;;;;9.65;3.10;;;10.60;84.30;;;;;;5027147;28;20421;-82
2020/12/14 10:33:18;;;;;;;11.35;3.78;;;10.60;84.20;;;;;;5028744;28;20151;-83
2020/12/14 10:35:48;;;;;;;8.93;2.92;;;10.60;84.20;;;;;;5028361;28;20029;-83
2020/12/14 10:38:14;;;;;;;14.60;3.50;;;10.60;84.20;;;;;;5027100;28;20563;-82
2020/12/14 10:40:40;;;;;;;14.93;3.47;;;10.60;84.20;;;;;;5026271;28;20418;-81
2020/12/14 10:43:06;;;;;;;10.75;3.38;;;10.60;84.20;;;;;;5009796;28;20033;-81
2020/12/14 10:45:32;;;;;;;10.75;3.38;;;10.70;84.40;;;;;;5023152;28;20025;-80
2020/12/14 10:47:58;;;;;;;9.50;3.47;;;10.70;84.40;;;;;;5022289;28;20053;-80
2020/12/14 10:50:26;;;;;;;8.25;3.17;;;10.70;84.40;;;;;;5006062;28;20071;-80
2020/12/14 10:52:53;;;;;;;11.05;3.20;;;10.70;84.40;;;;;;5008492;28;20048;-80
2020/12/14 10:55:19;;;;;;;11.20;3.63;;;10.80;84.50;;;;;;5009065;28;20051;-79
2020/12/14 10:57:46;;;;;;;6.78;3.25;;;10.80;84.50;;;;;;5025202;28;20041;-80
2020/12/14 11:00:12;;;;;;;10.07;3.28;;;10.80;84.50;;;;;;5025664;28;20342;-81
2020/12/14 11:02:39;;;;;;;10.43;2.63;;;10.80;84.50;;;;;;5026968;28;20040;-81
2020/12/14 11:05:07;;;;;;;11.32;3.50;;;10.90;84.60;;;;;;5025618;28;20037;-80
2020/12/14 11:07:33;;;;;;;8.32;2.80;;;10.90;84.60;;;;;;5025552;28;20029;-79
2020/12/14 11:10:00;;;;;;;11.73;3.85;;;10.90;84.60;;;;;;5026566;28;20037;-82
2020/12/14 11:12:27;;;;;;;11.02;2.92;;;10.90;85.00;;;;;;5025423;28;20064;-78
2020/12/14 11:14:53;;;;;;;12.23;3.15;;;11.00;84.80;;;;;;5026691;28;20076;-79
2020/12/14 11:17:20;;;;;;;7.28;2.88;;;11.00;84.90;;;;;;5026692;28;20124;-78
2020/12/14 11:19:46;;;;;;;11.40;3.15;;;11.10;85.10;;;;;;5025083;28;20029;-79
2020/12/14 11:22:12;;;;;;;15.05;3.85;;;11.20;85.30;;;;;;5024908;28;20369;-79
2020/12/14 11:24:38;;;;;;;11.82;4.13;;;11.20;85.20;;;;;;5025004;28;20026;-80
2020/12/14 11:27:04;;;;;;;11.35;3.03;;;11.30;85.30;;;;;;5024959;28;20044;-80
2020/12/14 11:29:31;;;;;;;16.33;4.65;;;11.30;85.10;;;;;;5026502;28;20052;-81
2020/12/14 11:31:57;;;;;;;7.32;2.70;;;11.40;85.20;;;;;;5008795;28;20047;-80
2020/12/14 11:34:23;;;;;;;11.75;4.30;;;11.40;85.10;;;;;;5025846;28;20030;-81
2020/12/14 11:36:49;;;;;;;11.77;3.35;;;11.40;85.10;;;;;;5025123;28;20342;-80
2020/12/14 11:39:16;;;;;;;10.93;3.85;;;11.50;85.30;;;;;;5024885;28;20485;-80
2020/12/14 11:41:48;;;;;;;10.32;3.75;;;11.50;85.30;;;;;;5026351;28;20029;-79
2020/12/14 11:44:15;;;;;;;11.02;3.72;;;11.60;85.40;;;;;;5011393;28;20056;-79
2020/12/14 11:46:42;;;;;;;16.90;4.47;;;11.70;85.50;;;;;;5011311;28;20144;-81
2020/12/14 11:49:08;;;;;;;13.75;4.70;;;11.70;85.50;;;;;;5029092;28;20096;-81
2020/12/14 11:51:37;;;;;;;9.05;3.30;;;11.80;85.60;;;;;;5008140;28;20029;-80
2020/12/14 11:54:04;;;;;;;17.70;4.57;;;11.80;85.50;;;;;;5024990;28;20088;-79
2020/12/14 11:56:30;;;;;;;13.73;4.60;;;11.80;85.50;;;;;;5018549;28;20022;-80
2020/12/14 11:58:56;;;;;;;15.07;5.47;;;11.90;85.60;;;;;;5024764;28;20034;-80
2020/12/14 12:01:23;;;;;;;8.63;3.85;;;11.90;85.60;;;;;;5008626;28;20133;-80
2020/12/14 12:03:50;;;;;;;12.43;4.63;;;12.00;85.70;;;;;;5024543;28;20022;-80
2020/12/14 12:06:16;;;;;;;13.50;4.00;;;12.00;85.60;;;;;;5024566;28;20034;-81
2020/12/14 12:08:43;;;;;;;8.63;4.05;;;12.10;85.80;;;;;;5008688;28;20120;-80
2020/12/14 12:11:13;;;;;;;13.85;4.63;;;12.10;85.70;;;;;;5025756;28;20461;-79
2020/12/14 12:13:40;;;;;;;9.38;3.92;;;12.20;85.80;;;;;;5024541;28;20120;-79
2020/12/14 12:16:06;;;;;;;8.32;3.97;;;12.20;85.80;;;;;;5025633;28;20497;-79
2020/12/14 12:18:33;;;;;;;13.80;4.65;;;12.30;85.80;;;;;;5022816;28;20112;-78
2020/12/14 12:20:59;;;;;;;10.65;3.63;;;12.30;85.80;;;;;;5024833;28;20508;-77
2020/12/14 12:23:25;;;;;;;13.57;4.45;;;12.30;85.70;;;;;;5024233;28;20440;-77
2020/12/14 12:25:51;;;;;;;13.75;4.45;;;12.40;85.80;;;;;;5024115;28;20112;-77
2020/12/14 12:28:17;;;;;;;14.00;4.75;;;12.40;85.80;;;;;;5025984;28;20151;-76
2020/12/14 12:30:42;;;;;;;7.10;2.92;;;12.40;85.80;;;;;;5008320;28;20029;-77
2020/12/14 12:33:08;;;;;;;8.18;3.63;;;12.40;85.70;;;;;;5019025;28;20062;-78
2020/12/14 12:35:34;;;;;;;12.07;3.88;;;12.50;85.80;;;;;;5023015;28;20099;-79
2020/12/14 12:38:00;;;;;;;12.38;3.95;;;12.50;85.80;;;;;;5024898;28;20065;-78
2020/12/14 12:40:26;;;;;;;12.27;3.75;;;12.50;85.70;;;;;;5026091;28;20041;-77
2020/12/14 12:42:52;;;;;;;11.90;3.75;;;12.50;85.60;;;;;;5024888;28;20030;-78
2020/12/14 12:45:18;;;;;;;7.85;3.88;;;12.60;85.80;;;;;;5025416;28;20029;-77
2020/12/14 12:47:44;;;;;;;12.73;3.17;;;12.60;85.70;;;;;;5025036;28;20098;-77